Time;durP1;ratioP1;P1;durP2;ratioP2;P2;SDS_P1;SDS_P2;PMS_P1;PMS_P2;Temp;Humidity;BMP_temperature;BMP_pressure;BME280_temperature;BME280_humidity;BME280_pressure;Samples;Min_cycle;Max_cycle;Signal;HPM_P1;HPM_P2
2023/04/28 00:01:48;;;;;;;;;1.75;1.75;;;;;;;;5040548;28;61903;-82
2023/04/28 00:04:13;;;;;;;;;2.75;1.75;;;;;;;;5041448;28;61723;-82
2023/04/28 00:06:39;;;;;;;;;3.25;2.00;;;;;;;;5041716;28;61815;-83
2023/04/28 00:09:05;;;;;;;;;3.00;2.00;;;;;;;;5040375;28;61883;-83
2023/04/28 00:11:30;;;;;;;;;6.00;3.00;;;;;;;;5039502;28;63681;-82
2023/04/28 00:13:55;;;;;;;;;3.50;3.50;;;;;;;;5040084;28;61908;-82
2023/04/28 00:16:21;;;;;;;;;3.00;3.00;;;;;;;;5042350;28;61795;-82
2023/04/28 00:18:46;;;;;;;;;1.75;1.75;;;;;;;;5040805;28;61826;-82
2023/04/28 00:21:11;;;;;;;;;3.25;2.25;;;;;;;;5038501;28;63584;-82
2023/04/28 00:23:37;;;;;;;;;2.50;2.25;;;;;;;;5040618;28;62384;-82
2023/04/28 00:26:02;;;;;;;;;4.75;3.00;;;;;;;;5038831;28;61915;-82
2023/04/28 00:28:27;;;;;;;;;1.50;1.50;;;;;;;;5040230;28;62053;-83
2023/04/28 00:30:52;;;;;;;;;3.75;2.50;;;;;;;;5038742;28;63660;-82
2023/04/28 00:33:18;;;;;;;;;3.25;2.25;;;;;;;;5040156;28;61898;-83
2023/04/28 00:35:43;;;;;;;;;2.00;2.00;;;;;;;;5039328;28;61941;-82
2023/04/28 00:38:08;;;;;;;;;1.00;1.00;;;;;;;;5041461;28;61752;-82
2023/04/28 00:40:37;;;;;;;;;1.75;1.75;;;;;;;;5038824;28;63734;-82
2023/04/28 00:43:03;;;;;;;;;2.00;2.00;;;;;;;;5041067;28;62695;-82
2023/04/28 00:45:29;;;;;;;;;2.00;2.00;;;;;;;;5041129;28;61757;-83
2023/04/28 00:47:57;;;;;;;;;2.00;2.00;;;;;;;;5041334;28;62121;-82
2023/04/28 00:50:22;;;;;;;;;3.75;3.75;;;;;;;;5043070;28;62712;-81
2023/04/28 00:52:48;;;;;;;;;3.25;2.75;;;;;;;;5044741;28;61851;-82
2023/04/28 00:55:15;;;;;;;;;4.00;2.00;;;;;;;;5043059;28;61829;-82
2023/04/28 00:57:40;;;;;;;;;2.00;2.00;;;;;;;;5044112;28;61956;-82
2023/04/28 01:00:06;;;;;;;;;2.00;2.00;;;;;;;;5044048;28;61890;-82
2023/04/28 01:02:32;;;;;;;;;1.00;1.00;;;;;;;;5043842;28;61826;-82
2023/04/28 01:04:58;;;;;;;;;2.00;2.00;;;;;;;;5044389;28;61898;-82
2023/04/28 01:07:24;;;;;;;;;2.50;1.00;;;;;;;;5044751;28;61887;-82
2023/04/28 01:09:50;;;;;;;;;3.00;1.75;;;;;;;;5042040;28;64882;-82
2023/04/28 01:12:15;;;;;;;;;4.75;2.50;;;;;;;;5044268;28;61913;-82
2023/04/28 01:14:41;;;;;;;;;2.00;1.00;;;;;;;;5044034;28;61751;-82
2023/04/28 01:17:07;;;;;;;;;3.75;1.50;;;;;;;;5043019;28;61945;-82
2023/04/28 01:19:32;;;;;;;;;1.25;1.00;;;;;;;;5041530;28;63860;-82
2023/04/28 01:21:57;;;;;;;;;0.25;0.25;;;;;;;;5044391;28;61932;-82
2023/04/28 01:24:23;;;;;;;;;1.50;1.50;;;;;;;;5042730;28;62115;-82
2023/04/28 01:26:48;;;;;;;;;2.25;1.00;;;;;;;;5042191;28;62003;-82
2023/04/28 01:29:13;;;;;;;;;2.00;1.00;;;;;;;;5043642;28;62905;-82
2023/04/28 01:31:38;;;;;;;;;2.75;1.00;;;;;;;;5043239;28;61755;-81
2023/04/28 01:34:04;;;;;;;;;2.00;2.00;;;;;;;;5044352;28;61834;-81
2023/04/28 01:36:30;;;;;;;;;3.00;2.00;;;;;;;;5042481;28;61852;-82
2023/04/28 01:38:55;;;;;;;;;2.50;1.00;;;;;;;;5043301;28;62124;-82
2023/04/28 01:41:21;;;;;;;;;3.50;1.50;;;;;;;;5043402;28;61790;-81
2023/04/28 01:43:46;;;;;;;;;3.00;3.00;;;;;;;;5043465;28;62151;-79
2023/04/28 01:46:11;;;;;;;;;2.25;2.00;;;;;;;;5044098;28;61834;-81
2023/04/28 01:48:37;;;;;;;;;1.50;1.50;;;;;;;;5043335;28;62061;-81
2023/04/28 01:51:02;;;;;;;;;1.00;1.00;;;;;;;;5042154;28;61936;-81
2023/04/28 01:53:27;;;;;;;;;2.00;2.00;;;;;;;;5042652;28;61925;-82
2023/04/28 01:55:52;;;;;;;;;1.50;1.50;;;;;;;;5042972;28;62047;-80
2023/04/28 01:58:18;;;;;;;;;4.00;3.00;;;;;;;;5041588;28;64052;-82
2023/04/28 02:00:43;;;;;;;;;1.00;1.00;;;;;;;;5043274;28;61798;-81
2023/04/28 02:03:08;;;;;;;;;3.00;3.00;;;;;;;;5043163;28;61875;-82
2023/04/28 02:05:33;;;;;;;;;2.00;2.00;;;;;;;;5043770;28;61993;-82
2023/04/28 02:07:59;;;;;;;;;1.50;1.50;;;;;;;;5042807;28;62842;-82
2023/04/28 02:10:24;;;;;;;;;1.00;1.00;;;;;;;;5042551;28;61763;-81
2023/04/28 02:12:49;;;;;;;;;2.00;2.00;;;;;;;;5043421;28;61735;-82
2023/04/28 02:15:15;;;;;;;;;1.25;1.25;;;;;;;;5044195;28;61800;-81
2023/04/28 02:17:41;;;;;;;;;1.00;1.00;;;;;;;;5044606;28;61771;-81
2023/04/28 02:23:02;;;;;;;;;1.00;1.00;;;;;;;;4023053;22;62786;-86
2023/04/28 02:25:27;;;;;;;;;2.75;2.00;;;;;;;;5063440;28;61824;-86
2023/04/28 02:27:53;;;;;;;;;2.00;0.00;;;;;;;;5063459;28;62131;-86
2023/04/28 02:30:18;;;;;;;;;4.00;2.00;;;;;;;;5064315;28;61851;-86
2023/04/28 02:32:43;;;;;;;;;1.00;1.00;;;;;;;;5063901;28;61729;-86
2023/04/28 02:35:08;;;;;;;;;1.00;1.00;;;;;;;;5064363;28;61765;-86
2023/04/28 02:37:34;;;;;;;;;1.25;1.00;;;;;;;;5062863;28;61735;-87
2023/04/28 02:39:59;;;;;;;;;2.00;2.00;;;;;;;;5063480;28;61889;-86
2023/04/28 02:42:24;;;;;;;;;1.00;1.00;;;;;;;;5064137;28;61810;-86
2023/04/28 02:44:50;;;;;;;;;1.00;1.00;;;;;;;;5079628;28;61775;-86
2023/04/28 02:47:15;;;;;;;;;0.50;0.25;;;;;;;;5063296;28;62535;-86
2023/04/28 02:49:40;;;;;;;;;2.75;0.00;;;;;;;;5064015;28;61770;-86
2023/04/28 02:52:05;;;;;;;;;2.50;1.00;;;;;;;;5078800;28;62087;-86
2023/04/28 02:54:33;;;;;;;;;1.00;1.00;;;;;;;;5079365;28;61756;-85
2023/04/28 02:56:58;;;;;;;;;1.00;1.00;;;;;;;;5063018;28;61897;-86
2023/04/28 02:59:23;;;;;;;;;1.25;0.50;;;;;;;;5062272;28;61955;-85
2023/04/28 03:01:50;;;;;;;;;2.00;1.00;;;;;;;;5063514;28;61824;-86
2023/04/28 03:04:15;;;;;;;;;0.00;0.00;;;;;;;;5079581;28;62115;-85
2023/04/28 03:06:41;;;;;;;;;1.25;1.00;;;;;;;;5062522;28;63017;-86
2023/04/28 03:09:07;;;;;;;;;0.25;0.25;;;;;;;;5063787;28;61738;-86
2023/04/28 03:11:32;;;;;;;;;2.00;0.00;;;;;;;;5062773;28;61949;-86
2023/04/28 03:13:57;;;;;;;;;0.00;0.00;;;;;;;;5063635;28;62036;-86
2023/04/28 03:16:22;;;;;;;;;2.00;1.00;;;;;;;;5062672;28;61802;-85
2023/04/28 03:18:47;;;;;;;;;2.50;1.00;;;;;;;;5078921;28;61815;-86
2023/04/28 03:21:13;;;;;;;;;2.00;0.00;;;;;;;;5063253;28;61885;-86
2023/04/28 03:23:38;;;;;;;;;1.00;0.00;;;;;;;;5062966;28;61976;-86
2023/04/28 03:26:03;;;;;;;;;0.00;0.00;;;;;;;;5062064;28;62003;-86
2023/04/28 03:28:29;;;;;;;;;1.00;1.00;;;;;;;;5063479;28;61886;-86
2023/04/28 03:30:54;;;;;;;;;0.00;0.00;;;;;;;;5061798;28;61877;-86
2023/04/28 03:33:20;;;;;;;;;0.00;0.00;;;;;;;;5063608;28;61767;-86
2023/04/28 03:35:45;;;;;;;;;0.00;0.00;;;;;;;;5062329;28;61763;-86
2023/04/28 03:38:10;;;;;;;;;0.00;0.00;;;;;;;;5063076;28;61926;-86
2023/04/28 03:40:35;;;;;;;;;0.00;0.00;;;;;;;;5062832;28;61943;-86
2023/04/28 03:43:01;;;;;;;;;0.00;0.00;;;;;;;;5062063;28;61710;-86
2023/04/28 03:45:26;;;;;;;;;0.00;0.00;;;;;;;;5061208;28;64736;-86
2023/04/28 03:47:51;;;;;;;;;0.00;0.00;;;;;;;;5063033;28;61823;-86
2023/04/28 03:50:17;;;;;;;;;0.00;0.00;;;;;;;;5062611;28;61753;-86
2023/04/28 03:52:42;;;;;;;;;0.00;0.00;;;;;;;;5061511;28;61787;-86
2023/04/28 03:55:08;;;;;;;;;0.00;0.00;;;;;;;;5062050;28;61825;-86
2023/04/28 03:57:33;;;;;;;;;1.00;0.00;;;;;;;;5062591;28;61773;-86
2023/04/28 03:59:58;;;;;;;;;1.50;0.00;;;;;;;;5061572;28;62004;-86
2023/04/28 04:02:24;;;;;;;;;0.00;0.00;;;;;;;;5063129;28;61735;-85
2023/04/28 04:04:49;;;;;;;;;0.00;0.00;;;;;;;;5061856;28;61913;-85
2023/04/28 04:07:14;;;;;;;;;1.50;0.00;;;;;;;;5053082;28;62066;-85
2023/04/28 04:09:40;;;;;;;;;1.00;1.00;;;;;;;;5062706;28;61815;-85
2023/04/28 04:12:06;;;;;;;;;0.00;0.00;;;;;;;;5061483;28;62295;-86
2023/04/28 04:14:32;;;;;;;;;0.50;0.00;;;;;;;;5059753;28;63632;-85
2023/04/28 04:16:57;;;;;;;;;1.00;0.00;;;;;;;;5061130;28;61770;-85
2023/04/28 04:19:25;;;;;;;;;0.00;0.00;;;;;;;;5040375;28;61858;-85
2023/04/28 04:21:50;;;;;;;;;1.00;0.50;;;;;;;;5040697;28;61751;-86
2023/04/28 04:24:15;;;;;;;;;0.50;0.50;;;;;;;;5053168;28;61907;-85
2023/04/28 04:26:41;;;;;;;;;0.00;0.00;;;;;;;;5044138;28;61841;-85
2023/04/28 04:29:06;;;;;;;;;0.00;0.00;;;;;;;;5046007;28;61876;-85
2023/04/28 04:31:31;;;;;;;;;0.25;0.25;;;;;;;;5045811;28;62386;-86
2023/04/28 04:33:57;;;;;;;;;0.00;0.00;;;;;;;;5044768;28;61984;-85
2023/04/28 04:36:22;;;;;;;;;0.00;0.00;;;;;;;;5045424;28;61757;-86
2023/04/28 04:38:47;;;;;;;;;0.00;0.00;;;;;;;;5044073;28;61916;-86
2023/04/28 04:41:13;;;;;;;;;0.00;0.00;;;;;;;;5045413;28;61801;-86
2023/04/28 04:43:38;;;;;;;;;0.00;0.00;;;;;;;;5043642;28;64801;-86
2023/04/28 04:46:03;;;;;;;;;0.33;0.33;;;;;;;;5064717;28;61769;-85
2023/04/28 04:48:28;;;;;;;;;1.00;0.00;;;;;;;;5065362;28;61766;-86
2023/04/28 04:50:54;;;;;;;;;0.75;0.00;;;;;;;;5064480;28;61846;-84
2023/04/28 04:53:19;;;;;;;;;1.00;0.00;;;;;;;;5064690;28;61772;-86
2023/04/28 04:55:44;;;;;;;;;0.00;0.00;;;;;;;;5063603;28;61993;-86
2023/04/28 04:58:09;;;;;;;;;0.00;0.00;;;;;;;;5063920;28;61865;-86
2023/04/28 05:00:36;;;;;;;;;0.00;0.00;;;;;;;;5063873;28;61877;-86
2023/04/28 05:03:02;;;;;;;;;0.50;0.00;;;;;;;;5064636;28;62645;-86
2023/04/28 05:05:28;;;;;;;;;0.00;0.00;;;;;;;;5065181;28;61783;-86
2023/04/28 05:07:53;;;;;;;;;0.25;0.00;;;;;;;;5063799;28;61908;-86
2023/04/28 05:10:18;;;;;;;;;0.00;0.00;;;;;;;;5065132;28;61735;-86
2023/04/28 05:12:43;;;;;;;;;1.00;0.00;;;;;;;;5063196;28;63731;-86
2023/04/28 05:15:09;;;;;;;;;0.00;0.00;;;;;;;;5063940;28;61937;-86
2023/04/28 05:17:35;;;;;;;;;0.00;0.00;;;;;;;;5063367;28;61949;-88
2023/04/28 05:20:00;;;;;;;;;0.00;0.00;;;;;;;;5065516;28;61628;-88
2023/04/28 05:22:25;;;;;;;;;0.00;0.00;;;;;;;;5064650;28;62164;-85
2023/04/28 05:24:51;;;;;;;;;0.00;0.00;;;;;;;;5064696;28;62165;-85
2023/04/28 05:27:17;;;;;;;;;0.50;0.00;;;;;;;;5063766;28;61874;-85
2023/04/28 05:29:42;;;;;;;;;1.75;0.00;;;;;;;;5064028;28;61852;-85
2023/04/28 05:32:07;;;;;;;;;0.00;0.00;;;;;;;;5062805;28;63489;-86
2023/04/28 05:34:33;;;;;;;;;0.00;0.00;;;;;;;;5062995;28;61827;-85
2023/04/28 05:37:00;;;;;;;;;0.00;0.00;;;;;;;;5064917;28;62056;-85
2023/04/28 05:39:25;;;;;;;;;0.00;0.00;;;;;;;;5063638;28;61806;-86
2023/04/28 05:41:50;;;;;;;;;0.00;0.00;;;;;;;;5062366;28;63536;-84
2023/04/28 05:44:15;;;;;;;;;0.00;0.00;;;;;;;;5062469;28;62012;-83
2023/04/28 05:46:41;;;;;;;;;0.00;0.00;;;;;;;;5071031;28;61863;-84
2023/04/28 05:49:06;;;;;;;;;0.00;0.00;;;;;;;;5088436;27;62261;-84
2023/04/28 05:51:32;;;;;;;;;0.00;0.00;;;;;;;;5062138;28;63721;-83
2023/04/28 05:53:57;;;;;;;;;1.25;0.00;;;;;;;;5072203;28;62376;-82
2023/04/28 05:56:30;;;;;;;;;0.00;0.00;;;;;;;;5061964;28;61933;-82
2023/04/28 05:58:55;;;;;;;;;0.00;0.00;;;;;;;;5045716;28;61754;-82
2023/04/28 06:01:21;;;;;;;;;0.00;0.00;;;;;;;;5057223;28;63817;-79
2023/04/28 06:03:46;;;;;;;;;0.33;0.33;;;;;;;;5062700;28;61798;-83
2023/04/28 06:06:12;;;;;;;;;0.00;0.00;;;;;;;;5051274;28;61983;-83
2023/04/28 06:08:37;;;;;;;;;0.00;0.00;;;;;;;;5042434;28;62098;-83
2023/04/28 06:11:03;;;;;;;;;0.00;0.00;;;;;;;;5042905;28;63973;-82
2023/04/28 06:13:28;;;;;;;;;0.00;0.00;;;;;;;;5044015;28;62007;-83
2023/04/28 06:15:53;;;;;;;;;0.00;0.00;;;;;;;;5043528;28;61713;-82
2023/04/28 06:18:18;;;;;;;;;3.00;0.00;;;;;;;;5042519;28;62180;-82
2023/04/28 06:20:44;;;;;;;;;1.50;0.50;;;;;;;;5042190;28;64856;-81
2023/04/28 06:23:09;;;;;;;;;0.00;0.00;;;;;;;;5063334;28;62320;-82
2023/04/28 06:25:35;;;;;;;;;0.00;0.00;;;;;;;;5051016;28;62306;-82
2023/04/28 06:28:00;;;;;;;;;1.00;1.00;;;;;;;;5063001;28;61883;-84
2023/04/28 06:30:26;;;;;;;;;0.25;0.25;;;;;;;;5063323;28;61955;-82
2023/04/28 06:32:51;;;;;;;;;1.00;0.00;;;;;;;;5057720;28;61966;-81
2023/04/28 06:35:16;;;;;;;;;0.00;0.00;;;;;;;;5055204;28;61710;-82
2023/04/28 06:37:41;;;;;;;;;1.00;0.00;;;;;;;;5075073;28;61713;-83
2023/04/28 06:40:07;;;;;;;;;1.00;0.00;;;;;;;;5065627;28;63599;-82
2023/04/28 06:42:32;;;;;;;;;0.00;0.00;;;;;;;;5076946;28;61836;-83
2023/04/28 06:44:58;;;;;;;;;0.00;0.00;;;;;;;;5081793;28;61975;-84
2023/04/28 06:47:23;;;;;;;;;1.00;0.00;;;;;;;;5082243;28;61755;-83
2023/04/28 06:49:49;;;;;;;;;0.00;0.00;;;;;;;;5081794;28;63763;-84
2023/04/28 06:52:14;;;;;;;;;0.50;0.50;;;;;;;;5073281;28;61880;-83
2023/04/28 06:54:39;;;;;;;;;0.00;0.00;;;;;;;;5061505;28;61741;-83
2023/04/28 06:57:05;;;;;;;;;2.50;1.25;;;;;;;;5063330;28;62381;-84
2023/04/28 06:59:30;;;;;;;;;2.00;1.00;;;;;;;;5060670;28;63689;-83
2023/04/28 07:01:55;;;;;;;;;3.00;1.00;;;;;;;;5063235;28;62147;-83
2023/04/28 07:04:21;;;;;;;;;0.00;0.00;;;;;;;;5063302;28;62020;-82
2023/04/28 07:06:46;;;;;;;;;2.00;0.25;;;;;;;;5063275;28;62126;-82
2023/04/28 07:09:11;;;;;;;;;0.75;0.75;;;;;;;;5061093;28;63505;-82
2023/04/28 07:11:37;;;;;;;;;0.50;0.50;;;;;;;;5062828;28;61870;-83
2023/04/28 07:14:02;;;;;;;;;0.50;0.50;;;;;;;;5061617;28;61773;-83
2023/04/28 07:16:27;;;;;;;;;1.00;1.00;;;;;;;;5060200;28;62237;-83
2023/04/28 07:18:52;;;;;;;;;0.75;0.00;;;;;;;;5050537;28;61947;-83
2023/04/28 07:21:18;;;;;;;;;0.50;0.50;;;;;;;;5049916;28;61889;-81
2023/04/28 07:23:44;;;;;;;;;1.00;1.00;;;;;;;;5052758;28;61868;-82
2023/04/28 07:26:10;;;;;;;;;3.00;1.00;;;;;;;;5052493;28;61945;-81
2023/04/28 07:28:35;;;;;;;;;2.25;2.00;;;;;;;;5049320;28;62850;-81
2023/04/28 07:31:01;;;;;;;;;3.00;2.00;;;;;;;;5052715;28;62201;-82
2023/04/28 07:33:26;;;;;;;;;2.25;2.25;;;;;;;;5051058;28;62255;-81
2023/04/28 07:35:52;;;;;;;;;1.00;1.00;;;;;;;;5051017;28;61859;-82
2023/04/28 07:38:19;;;;;;;;;2.75;1.00;;;;;;;;5060367;28;63462;-82
2023/04/28 07:40:44;;;;;;;;;2.00;1.00;;;;;;;;5062263;28;62014;-82
2023/04/28 07:43:09;;;;;;;;;4.25;2.00;;;;;;;;5063638;28;61745;-84
2023/04/28 07:45:38;;;;;;;;;1.00;1.00;;;;;;;;5062672;28;61873;-83
2023/04/28 07:48:04;;;;;;;;;0.25;0.25;;;;;;;;5063012;28;63025;-83
2023/04/28 07:50:29;;;;;;;;;0.67;0.67;;;;;;;;5049368;28;61905;-86
2023/04/28 07:52:54;;;;;;;;;1.00;1.00;;;;;;;;5048545;28;61906;-85
2023/04/28 07:55:20;;;;;;;;;1.00;1.00;;;;;;;;5048595;28;61948;-84
2023/04/28 07:57:45;;;;;;;;;1.00;1.00;;;;;;;;5049583;28;61848;-85
2023/04/28 08:00:11;;;;;;;;;2.00;1.00;;;;;;;;5050773;28;61830;-85
2023/04/28 08:02:36;;;;;;;;;0.00;0.00;;;;;;;;5054523;28;61924;-85
2023/04/28 08:05:01;;;;;;;;;2.00;1.00;;;;;;;;5061392;28;62047;-84
2023/04/28 08:07:27;;;;;;;;;0.00;0.00;;;;;;;;5060100;28;64679;-86
2023/04/28 08:09:54;;;;;;;;;1.00;0.75;;;;;;;;5052526;28;62210;-85
2023/04/28 08:12:19;;;;;;;;;0.00;0.00;;;;;;;;5041900;28;61905;-84
2023/04/28 08:14:44;;;;;;;;;1.50;1.00;;;;;;;;5040372;28;61937;-82
2023/04/28 08:17:10;;;;;;;;;2.00;1.00;;;;;;;;5057144;28;63210;-87
2023/04/28 08:19:35;;;;;;;;;0.00;0.00;;;;;;;;5060361;28;61794;-87
2023/04/28 08:22:04;;;;;;;;;0.75;0.75;;;;;;;;5060448;28;62243;-87
2023/04/28 08:24:33;;;;;;;;;0.67;0.67;;;;;;;;5061279;28;61944;-88
2023/04/28 08:26:59;;;;;;;;;0.00;0.00;;;;;;;;5059133;28;63671;-87
2023/04/28 08:29:24;;;;;;;;;1.00;0.00;;;;;;;;5055095;28;61897;-84
2023/04/28 08:31:50;;;;;;;;;0.00;0.00;;;;;;;;5040103;28;62457;-87
2023/04/28 08:34:15;;;;;;;;;0.00;0.00;;;;;;;;5043531;28;61881;-85
2023/04/28 08:36:41;;;;;;;;;2.00;1.00;;;;;;;;5046631;28;62823;-87
2023/04/28 08:39:07;;;;;;;;;0.00;0.00;;;;;;;;5041484;28;62128;-85
2023/04/28 08:41:36;;;;;;;;;1.00;1.00;;;;;;;;5047983;28;62304;-84
2023/04/28 08:44:05;;;;;;;;;2.67;1.00;;;;;;;;5061610;28;61754;-85
2023/04/28 08:46:30;;;;;;;;;0.00;0.00;;;;;;;;5059562;28;64434;-85
2023/04/28 08:49:00;;;;;;;;;1.67;1.00;;;;;;;;5060102;28;61828;-85
2023/04/28 08:51:30;;;;;;;;;1.00;1.00;;;;;;;;5060225;28;61749;-85
2023/04/28 08:53:58;;;;;;;;;2.75;1.00;;;;;;;;5049707;28;61864;-84
2023/04/28 08:56:23;;;;;;;;;0.00;0.00;;;;;;;;5040023;28;63244;-83
2023/04/28 08:58:50;;;;;;;;;3.00;2.00;;;;;;;;5054690;28;61929;-84
2023/04/28 09:01:16;;;;;;;;;1.00;1.00;;;;;;;;5048456;28;61727;-86
2023/04/28 09:03:41;;;;;;;;;1.00;0.00;;;;;;;;5052845;28;62105;-86
2023/04/28 09:06:07;;;;;;;;;0.00;0.00;;;;;;;;5059205;28;63646;-87
2023/04/28 09:08:32;;;;;;;;;0.67;0.00;;;;;;;;5054285;28;61942;-85
2023/04/28 09:11:05;;;;;;;;;1.33;1.00;;;;;;;;5050273;28;62401;-86
2023/04/28 09:13:32;;;;;;;;;1.67;1.00;;;;;;;;5050806;28;62403;-84
2023/04/28 09:16:01;;;;;;;;;2.00;0.33;;;;;;;;5049773;28;63939;-86
2023/04/28 09:18:27;;;;;;;;;2.00;2.00;;;;;;;;5060431;28;61995;-85
2023/04/28 09:21:01;;;;;;;;;0.33;0.33;;;;;;;;5054232;28;62016;-85
2023/04/28 09:23:27;;;;;;;;;1.00;1.00;;;;;;;;5054687;28;61864;-85
2023/04/28 09:25:59;;;;;;;;;1.33;1.00;;;;;;;;5056084;28;62349;-85
2023/04/28 09:28:25;;;;;;;;;0.00;0.00;;;;;;;;5043437;28;62096;-85
2023/04/28 09:30:50;;;;;;;;;1.00;1.00;;;;;;;;5058415;28;61773;-86
2023/04/28 09:33:15;;;;;;;;;0.00;0.00;;;;;;;;5060975;28;61785;-84
2023/04/28 09:35:42;;;;;;;;;0.00;0.00;;;;;;;;5055126;28;63140;-84
2023/04/28 09:38:07;;;;;;;;;0.00;0.00;;;;;;;;5052118;28;62052;-84
2023/04/28 09:40:33;;;;;;;;;0.67;0.67;;;;;;;;5049048;28;61864;-84
2023/04/28 09:42:58;;;;;;;;;0.00;0.00;;;;;;;;5051994;28;61879;-85
2023/04/28 09:45:24;;;;;;;;;0.00;0.00;;;;;;;;5050284;28;65040;-85
2023/04/28 09:47:49;;;;;;;;;0.00;0.00;;;;;;;;5049436;28;61975;-85
2023/04/28 09:50:16;;;;;;;;;2.33;1.33;;;;;;;;5052580;28;61913;-86
2023/04/28 09:52:43;;;;;;;;;1.33;0.33;;;;;;;;5053314;28;61723;-84
2023/04/28 09:55:09;;;;;;;;;0.67;0.67;;;;;;;;5053849;28;63755;-86
2023/04/28 09:57:35;;;;;;;;;1.33;0.33;;;;;;;;5051624;28;61900;-85
2023/04/28 10:00:04;;;;;;;;;3.00;0.00;;;;;;;;5054376;28;62032;-86
2023/04/28 10:02:30;;;;;;;;;0.00;0.00;;;;;;;;5052368;28;61901;-86
2023/04/28 10:04:55;;;;;;;;;1.00;1.00;;;;;;;;5048820;28;63541;-85
2023/04/28 10:07:21;;;;;;;;;2.00;0.33;;;;;;;;5053135;28;61971;-86
2023/04/28 10:09:49;;;;;;;;;0.00;0.00;;;;;;;;5051962;28;61849;-85
2023/04/28 10:12:14;;;;;;;;;0.00;0.00;;;;;;;;5056015;28;61743;-85
2023/04/28 10:14:41;;;;;;;;;1.00;1.00;;;;;;;;5053282;28;62916;-85
2023/04/28 10:17:06;;;;;;;;;0.00;0.00;;;;;;;;5051111;28;61973;-86
2023/04/28 10:19:33;;;;;;;;;0.67;0.00;;;;;;;;5057395;28;62381;-86
2023/04/28 10:22:19;;;;;;;;;2.67;1.00;;;;;;;;5054208;28;61844;-86
2023/04/28 10:24:50;;;;;;;;;2.00;0.33;;;;;;;;5049972;28;63917;-87
2023/04/28 10:27:16;;;;;;;;;1.00;1.00;;;;;;;;5059329;28;62284;-86
2023/04/28 10:29:41;;;;;;;;;0.00;0.00;;;;;;;;5050268;28;62044;-85
2023/04/28 10:32:13;;;;;;;;;0.67;0.67;;;;;;;;5051346;28;62382;-86
2023/04/28 10:34:38;;;;;;;;;1.00;0.00;;;;;;;;5052997;28;62139;-85
2023/04/28 10:37:04;;;;;;;;;0.00;0.00;;;;;;;;5051643;28;61844;-86
2023/04/28 10:39:29;;;;;;;;;0.67;0.67;;;;;;;;5054307;28;62251;-86
2023/04/28 10:41:54;;;;;;;;;1.00;1.00;;;;;;;;5050386;28;62199;-86
2023/04/28 10:44:29;;;;;;;;;0.00;0.00;;;;;;;;5050714;28;63516;-84
2023/04/28 10:47:06;;;;;;;;;1.00;0.33;;;;;;;;5048107;28;61935;-85
2023/04/28 10:49:50;;;;;;;;;1.00;1.00;;;;;;;;5050606;28;61853;-84
2023/04/28 10:52:34;;;;;;;;;0.00;0.00;;;;;;;;5051299;28;61790;-85
2023/04/28 10:55:18;;;;;;;;;0.33;0.33;;;;;;;;5051166;28;62669;-83
2023/04/28 10:57:43;;;;;;;;;2.67;0.33;;;;;;;;5055487;28;62055;-85
2023/04/28 11:00:29;;;;;;;;;0.00;0.00;;;;;;;;5049218;28;62033;-85
2023/04/28 11:02:54;;;;;;;;;0.33;0.33;;;;;;;;5055698;28;61881;-87
2023/04/28 11:05:19;;;;;;;;;1.00;0.00;;;;;;;;5060748;28;63682;-88
2023/04/28 11:08:03;;;;;;;;;0.00;0.00;;;;;;;;5058511;28;62447;-85
2023/04/28 11:10:48;;;;;;;;;0.00;0.00;;;;;;;;5051436;28;61852;-84
2023/04/28 11:13:27;;;;;;;;;0.67;0.67;;;;;;;;5052898;28;61840;-80
2023/04/28 11:16:05;;;;;;;;;0.00;0.00;;;;;;;;5044095;28;62212;-86
2023/04/28 11:18:41;;;;;;;;;2.00;0.00;;;;;;;;5053952;28;61873;-88
2023/04/28 11:21:06;;;;;;;;;0.33;0.33;;;;;;;;5060929;28;61851;-88
2023/04/28 11:23:32;;;;;;;;;0.00;0.00;;;;;;;;5055504;28;63104;-86
2023/04/28 11:25:58;;;;;;;;;0.67;0.67;;;;;;;;5054511;28;63655;-90
2023/04/28 11:28:23;;;;;;;;;0.00;0.00;;;;;;;;5063351;28;61664;-89
2023/04/28 11:30:48;;;;;;;;;0.00;0.00;;;;;;;;5062375;28;61892;-91
2023/04/28 11:33:14;;;;;;;;;1.00;1.00;;;;;;;;5061686;28;61836;-90
2023/04/28 11:35:40;;;;;;;;;0.00;0.00;;;;;;;;5060873;28;63631;-89
2023/04/28 11:38:05;;;;;;;;;1.00;0.00;;;;;;;;5062830;28;62149;-95
2023/04/28 11:40:30;;;;;;;;;1.33;0.00;;;;;;;;5078074;28;61881;-88
2023/04/28 11:42:57;;;;;;;;;0.00;0.00;;;;;;;;5062100;28;62033;-92
2023/04/28 11:45:23;;;;;;;;;1.00;0.00;;;;;;;;5062091;28;61989;-90
2023/04/28 11:47:48;;;;;;;;;0.00;0.00;;;;;;;;5062483;28;61707;-87
2023/04/28 11:50:14;;;;;;;;;0.00;0.00;;;;;;;;5062292;28;61809;-87
2023/04/28 11:52:49;;;;;;;;;0.00;0.00;;;;;;;;5061492;28;61518;-89
2023/04/28 11:55:18;;;;;;;;;1.67;1.67;;;;;;;;5050708;28;64796;-87
2023/04/28 11:57:43;;;;;;;;;3.33;1.00;;;;;;;;5053466;28;61989;-86
2023/04/28 12:00:13;;;;;;;;;0.00;0.00;;;;;;;;5044982;28;61914;-91
2023/04/28 12:02:38;;;;;;;;;0.00;0.00;;;;;;;;5046158;28;61873;-95
2023/04/28 12:05:07;;;;;;;;;2.00;0.67;;;;;;;;5046772;28;63761;-86
2023/04/28 12:07:43;;;;;;;;;1.00;1.00;;;;;;;;5059603;28;61927;-86
2023/04/28 12:10:15;;;;;;;;;0.00;0.00;;;;;;;;5054578;28;61830;-89
2023/04/28 12:12:41;;;;;;;;;0.67;0.67;;;;;;;;5044558;28;61910;-86
2023/04/28 12:15:07;;;;;;;;;0.00;0.00;;;;;;;;5038435;28;63542;-86
2023/04/28 12:17:32;;;;;;;;;0.00;0.00;;;;;;;;5050114;28;61961;-87
2023/04/28 12:19:59;;;;;;;;;1.00;1.00;;;;;;;;5058548;28;61986;-87
2023/04/28 12:22:42;;;;;;;;;0.00;0.00;;;;;;;;5063730;28;62037;-86
2023/04/28 12:25:09;;;;;;;;;0.00;0.00;;;;;;;;5053209;28;63754;-86
2023/04/28 12:27:38;;;;;;;;;0.00;0.00;;;;;;;;5052872;28;62999;-91
2023/04/28 12:30:23;;;;;;;;;0.00;0.00;;;;;;;;5058380;28;61770;-89
2023/04/28 12:32:49;;;;;;;;;0.00;0.00;;;;;;;;5051262;28;63075;-91
2023/04/28 12:35:14;;;;;;;;;1.00;0.00;;;;;;;;5047467;28;63807;-92
2023/04/28 12:37:41;;;;;;;;;0.33;0.00;;;;;;;;5050724;28;62115;-95
2023/04/28 12:40:06;;;;;;;;;0.00;0.00;;;;;;;;5052005;28;61927;-89
2023/04/28 12:42:31;;;;;;;;;0.00;0.00;;;;;;;;5048670;28;61758;-84
2023/04/28 12:44:57;;;;;;;;;0.67;0.00;;;;;;;;5048606;28;64953;-86
2023/04/28 12:47:22;;;;;;;;;0.00;0.00;;;;;;;;5051391;28;61892;-85
2023/04/28 12:49:49;;;;;;;;;2.00;1.00;;;;;;;;5055936;28;62169;-84
2023/04/28 12:52:15;;;;;;;;;0.00;0.00;;;;;;;;5055435;28;61834;-84
2023/04/28 12:54:45;;;;;;;;;0.00;0.00;;;;;;;;5053860;28;62094;-86
2023/04/28 12:57:12;;;;;;;;;0.33;0.00;;;;;;;;5053742;28;62413;-84
2023/04/28 12:59:37;;;;;;;;;0.00;0.00;;;;;;;;5052583;28;61832;-84
2023/04/28 13:02:02;;;;;;;;;0.00;0.00;;;;;;;;5053537;28;62143;-84
2023/04/28 13:04:28;;;;;;;;;0.00;0.00;;;;;;;;5054379;28;64884;-84
2023/04/28 13:06:53;;;;;;;;;0.00;0.00;;;;;;;;5052219;28;61879;-84
2023/04/28 13:09:18;;;;;;;;;0.00;0.00;;;;;;;;5056129;28;62781;-87
2023/04/28 13:11:44;;;;;;;;;1.00;0.00;;;;;;;;5052457;28;61974;-86
2023/04/28 13:14:09;;;;;;;;;0.00;0.00;;;;;;;;5048169;28;63721;-87
2023/04/28 13:16:35;;;;;;;;;0.00;0.00;;;;;;;;5054334;28;63349;-86
2023/04/28 13:19:01;;;;;;;;;0.00;0.00;;;;;;;;5054582;28;61918;-85
2023/04/28 13:21:27;;;;;;;;;1.00;0.00;;;;;;;;5051962;28;62142;-80
2023/04/28 13:23:53;;;;;;;;;0.00;0.00;;;;;;;;5056846;28;62013;-82
2023/04/28 13:26:19;;;;;;;;;0.00;0.00;;;;;;;;5051768;28;61934;-82
2023/04/28 13:28:45;;;;;;;;;0.00;0.00;;;;;;;;5052131;28;62335;-83
2023/04/28 13:31:11;;;;;;;;;0.00;0.00;;;;;;;;5054318;28;62195;-84
2023/04/28 13:33:36;;;;;;;;;0.00;0.00;;;;;;;;5053151;28;62189;-83
2023/04/28 13:36:01;;;;;;;;;0.00;0.00;;;;;;;;5051854;28;61900;-82
2023/04/28 13:38:26;;;;;;;;;1.00;0.00;;;;;;;;5057691;28;61730;-84
2023/04/28 13:40:52;;;;;;;;;0.00;0.00;;;;;;;;5052910;28;62333;-85
2023/04/28 13:43:18;;;;;;;;;0.00;0.00;;;;;;;;5053097;28;63800;-83
2023/04/28 13:45:43;;;;;;;;;0.00;0.00;;;;;;;;5049417;28;61994;-82
2023/04/28 13:48:08;;;;;;;;;0.00;0.00;;;;;;;;5055253;28;62050;-84
2023/04/28 13:50:33;;;;;;;;;0.00;0.00;;;;;;;;5050692;28;62151;-82
2023/04/28 13:52:59;;;;;;;;;0.00;0.00;;;;;;;;5053245;28;61990;-83
2023/04/28 13:55:27;;;;;;;;;0.00;0.00;;;;;;;;5051209;28;62068;-84
2023/04/28 13:57:55;;;;;;;;;0.00;0.00;;;;;;;;5052174;28;62245;-83
2023/04/28 14:00:21;;;;;;;;;0.00;0.00;;;;;;;;5047183;28;62486;-84
2023/04/28 14:02:48;;;;;;;;;0.00;0.00;;;;;;;;5040989;28;64942;-85
2023/04/28 14:05:15;;;;;;;;;0.00;0.00;;;;;;;;5048123;28;62096;-85
2023/04/28 14:07:40;;;;;;;;;0.00;0.00;;;;;;;;5049439;28;62562;-83
2023/04/28 14:10:06;;;;;;;;;0.00;0.00;;;;;;;;5054127;28;63146;-84
2023/04/28 14:12:32;;;;;;;;;0.00;0.00;;;;;;;;5045368;28;63526;-85
2023/04/28 14:14:57;;;;;;;;;0.00;0.00;;;;;;;;5051424;28;62286;-85
2023/04/28 14:17:23;;;;;;;;;0.00;0.00;;;;;;;;5050415;28;61825;-84
2023/04/28 14:19:48;;;;;;;;;0.00;0.00;;;;;;;;5052987;28;61889;-84
2023/04/28 14:22:13;;;;;;;;;0.00;0.00;;;;;;;;5048777;28;64623;-86
2023/04/28 14:24:41;;;;;;;;;0.00;0.00;;;;;;;;5058611;28;61933;-84
2023/04/28 14:27:06;;;;;;;;;0.00;0.00;;;;;;;;5051046;28;61869;-85
2023/04/28 14:29:31;;;;;;;;;0.00;0.00;;;;;;;;5053643;28;62120;-83
2023/04/28 14:31:57;;;;;;;;;0.00;0.00;;;;;;;;5054500;28;63634;-84
2023/04/28 14:34:23;;;;;;;;;0.00;0.00;;;;;;;;5054751;28;62337;-85
2023/04/28 14:36:48;;;;;;;;;0.00;0.00;;;;;;;;5062249;28;62173;-85
2023/04/28 14:39:13;;;;;;;;;0.00;0.00;;;;;;;;5050299;28;62206;-84
2023/04/28 14:41:38;;;;;;;;;0.00;0.00;;;;;;;;5052112;28;62559;-85